sensor_id;sensor_type;location;lat;lon;timestamp;pressure;altitude;pressure_sealevel;temperature;humidity
76632;BME280;65526;48.578;-4.520;2023-02-08T00:00:47;102315.13;;;-4.35;75.67
76632;BME280;65526;48.578;-4.520;2023-02-08T00:03:14;103353.16;;;1.77;76.27
76632;BME280;65526;48.578;-4.520;2023-02-08T00:05:40;102685.81;;;-1.98;76.04
76632;BME280;65526;48.578;-4.520;2023-02-08T00:08:07;102951.84;;;-0.39;76.30
76632;BME280;65526;48.578;-4.520;2023-02-08T00:10:34;102387.19;;;-3.68;75.66
76632;BME280;65526;48.578;-4.520;2023-02-08T00:13:01;102430.66;;;-3.75;75.42
76632;BME280;65526;48.578;-4.520;2023-02-08T00:15:28;102708.13;;;-1.77;75.78
76632;BME280;65526;48.578;-4.520;2023-02-08T00:17:54;102556.66;;;-2.85;75.78
76632;BME280;65526;48.578;-4.520;2023-02-08T00:20:21;102597.69;;;-2.49;75.65
76632;BME280;65526;48.578;-4.520;2023-02-08T00:22:47;102913.66;;;-1.02;75.70
76632;BME280;65526;48.578;-4.520;2023-02-08T00:25:14;102357.00;;;-3.98;75.54
76632;BME280;65526;48.578;-4.520;2023-02-08T00:27:40;102989.66;;;-0.67;75.76
76632;BME280;65526;48.578;-4.520;2023-02-08T00:30:07;102979.56;;;-0.35;76.43
76632;BME280;65526;48.578;-4.520;2023-02-08T00:32:34;102624.56;;;-2.59;76.03
76632;BME280;65526;48.578;-4.520;2023-02-08T00:35:00;103274.88;;;1.45;76.61
76632;BME280;65526;48.578;-4.520;2023-02-08T00:37:26;103006.94;;;-0.80;76.41
76632;BME280;65526;48.578;-4.520;2023-02-08T00:39:53;102889.16;;;-1.08;76.44
76632;BME280;65526;48.578;-4.520;2023-02-08T00:42:19;102644.31;;;-2.32;76.28
76632;BME280;65526;48.578;-4.520;2023-02-08T00:44:45;102647.09;;;-2.45;76.05
76632;BME280;65526;48.578;-4.520;2023-02-08T00:47:12;102923.56;;;-0.76;76.46
76632;BME280;65526;48.578;-4.520;2023-02-08T00:49:38;102664.47;;;-2.40;76.65
76632;BME280;65526;48.578;-4.520;2023-02-08T00:52:05;103257.22;;;1.41;76.94
76632;BME280;65526;48.578;-4.520;2023-02-08T00:54:31;102998.44;;;-0.65;77.01
76632;BME280;65526;48.578;-4.520;2023-02-08T00:56:57;102650.78;;;-2.26;76.77
76632;BME280;65526;48.578;-4.520;2023-02-08T00:59:24;103000.28;;;-0.91;76.59
76632;BME280;65526;48.578;-4.520;2023-02-08T01:01:50;103058.88;;;-0.49;76.84
76632;BME280;65526;48.578;-4.520;2023-02-08T01:04:17;103396.59;;;1.31;76.94
76632;BME280;65526;48.578;-4.520;2023-02-08T01:06:43;102938.94;;;-1.26;76.69
76632;BME280;65526;48.578;-4.520;2023-02-08T01:09:10;102613.00;;;-2.54;76.68
76632;BME280;65526;48.578;-4.520;2023-02-08T01:11:37;102727.56;;;-2.05;76.91
76632;BME280;65526;48.578;-4.520;2023-02-08T01:14:03;102581.88;;;-2.65;76.80
76632;BME280;65526;48.578;-4.520;2023-02-08T01:16:31;102570.00;;;-2.77;76.24
76632;BME280;65526;48.578;-4.520;2023-02-08T01:19:00;103298.88;;;1.25;76.89
76632;BME280;65526;48.578;-4.520;2023-02-08T01:21:33;102588.41;;;-2.72;76.25
76632;BME280;65526;48.578;-4.520;2023-02-08T01:24:00;103295.63;;;1.09;76.61
76632;BME280;65526;48.578;-4.520;2023-02-08T01:26:29;102659.84;;;-2.39;76.95
76632;BME280;65526;48.578;-4.520;2023-02-08T01:28:56;102563.81;;;-2.97;76.99
76632;BME280;65526;48.578;-4.520;2023-02-08T01:31:25;102923.44;;;-0.94;76.88
76632;BME280;65526;48.578;-4.520;2023-02-08T01:33:55;103273.84;;;0.96;77.13
76632;BME280;65526;48.578;-4.520;2023-02-08T01:36:22;102707.69;;;-2.56;77.18
76632;BME280;65526;48.578;-4.520;2023-02-08T01:38:49;102623.69;;;-3.04;76.62
76632;BME280;65526;48.578;-4.520;2023-02-08T01:41:23;102877.50;;;-1.29;76.78
76632;BME280;65526;48.578;-4.520;2023-02-08T01:45:15;102620.72;;;-3.02;76.68
76632;BME280;65526;48.578;-4.520;2023-02-08T01:46:54;102911.91;;;-1.34;77.13
76632;BME280;65526;48.578;-4.520;2023-02-08T01:49:27;102650.44;;;-3.01;76.66
76632;BME280;65526;48.578;-4.520;2023-02-08T01:52:03;103241.72;;;0.85;77.33
76632;BME280;65526;48.578;-4.520;2023-02-08T01:54:36;102775.47;;;-2.48;76.88
76632;BME280;65526;48.578;-4.520;2023-02-08T01:57:06;102720.88;;;-2.66;77.22
76632;BME280;65526;48.578;-4.520;2023-02-08T01:59:55;102624.94;;;-3.06;76.78
76632;BME280;65526;48.578;-4.520;2023-02-08T02:02:24;102615.75;;;-3.18;76.65
76632;BME280;65526;48.578;-4.520;2023-02-08T02:04:52;102857.66;;;-1.93;77.01
76632;BME280;65526;48.578;-4.520;2023-02-08T02:07:21;102903.66;;;-1.66;77.00
76632;BME280;65526;48.578;-4.520;2023-02-08T02:12:34;102534.53;;;-3.66;77.00
76632;BME280;65526;48.578;-4.520;2023-02-08T02:15:02;102362.13;;;-4.67;76.75
76632;BME280;65526;48.578;-4.520;2023-02-08T02:17:29;102928.91;;;-1.83;76.65
76632;BME280;65526;48.578;-4.520;2023-02-08T02:20:03;103223.44;;;0.54;77.32
76632;BME280;65526;48.578;-4.520;2023-02-08T02:23:21;103225.16;;;0.49;77.22
76632;BME280;65526;48.578;-4.520;2023-02-08T02:28:54;102686.47;;;-3.38;76.87
76632;BME280;65526;48.578;-4.520;2023-02-08T02:31:56;103208.75;;;0.49;77.47
76632;BME280;65526;48.578;-4.520;2023-02-08T02:43:25;102894.19;;;-1.50;77.36
76632;BME280;65526;48.578;-4.520;2023-02-08T02:46:32;103206.28;;;0.40;77.53
76632;BME280;65526;48.578;-4.520;2023-02-08T02:51:44;102922.44;;;-2.09;77.04
76632;BME280;65526;48.578;-4.520;2023-02-08T02:54:17;102853.78;;;-2.37;76.93
76632;BME280;65526;48.578;-4.520;2023-02-08T02:56:48;102879.53;;;-1.55;77.20
76632;BME280;65526;48.578;-4.520;2023-02-08T02:59:17;102668.03;;;-3.56;76.79
76632;BME280;65526;48.578;-4.520;2023-02-08T03:01:45;102733.53;;;-2.34;76.99
76632;BME280;65526;48.578;-4.520;2023-02-08T03:04:18;102766.59;;;-2.17;77.14
76632;BME280;65526;48.578;-4.520;2023-02-08T03:09:32;103031.13;;;-0.84;77.01
76632;BME280;65526;48.578;-4.520;2023-02-08T03:18:09;102995.28;;;-1.58;77.09
76632;BME280;65526;48.578;-4.520;2023-02-08T03:21:01;102953.19;;;-1.82;77.27
76632;BME280;65526;48.578;-4.520;2023-02-08T03:23:40;102534.72;;;-3.68;76.65
76632;BME280;65526;48.578;-4.520;2023-02-08T03:26:49;102994.41;;;-0.88;76.88
76632;BME280;65526;48.578;-4.520;2023-02-08T03:32:39;103188.25;;;0.33;77.27
76632;BME280;65526;48.578;-4.520;2023-02-08T03:40:27;102312.69;;;-5.02;76.91
76632;BME280;65526;48.578;-4.520;2023-02-08T03:42:58;102991.22;;;-1.29;77.11
76632;BME280;65526;48.578;-4.520;2023-02-08T03:45:34;102831.44;;;-1.94;77.66
76632;BME280;65526;48.578;-4.520;2023-02-08T03:48:03;102557.50;;;-4.02;77.61
76632;BME280;65526;48.578;-4.520;2023-02-08T03:50:35;103242.41;;;0.18;77.80
76632;BME280;65526;48.578;-4.520;2023-02-08T03:53:04;102336.56;;;-5.59;76.97
76632;BME280;65526;48.578;-4.520;2023-02-08T03:55:34;102484.22;;;-4.15;77.53
76632;BME280;65526;48.578;-4.520;2023-02-08T04:00:36;102958.63;;;-1.62;77.41
76632;BME280;65526;48.578;-4.520;2023-02-08T04:03:14;102748.03;;;-2.47;77.15
76632;BME280;65526;48.578;-4.520;2023-02-08T04:05:42;102665.56;;;-3.31;76.97
76632;BME280;65526;48.578;-4.520;2023-02-08T04:08:09;102642.75;;;-3.50;76.98
76632;BME280;65526;48.578;-4.520;2023-02-08T04:10:35;102880.31;;;-2.06;77.00
76632;BME280;65526;48.578;-4.520;2023-02-08T04:13:02;102624.56;;;-3.49;77.21
76632;BME280;65526;48.578;-4.520;2023-02-08T04:15:29;102963.69;;;-1.79;77.60
76632;BME280;65526;48.578;-4.520;2023-02-08T04:17:56;102878.53;;;-1.74;77.67
76632;BME280;65526;48.578;-4.520;2023-02-08T04:20:22;102949.25;;;-1.92;77.35
76632;BME280;65526;48.578;-4.520;2023-02-08T04:22:49;103181.47;;;0.11;78.28
76632;BME280;65526;48.578;-4.520;2023-02-08T04:25:15;102638.38;;;-3.38;77.65
76632;BME280;65526;48.578;-4.520;2023-02-08T04:27:41;103044.22;;;-1.05;77.75
76632;BME280;65526;48.578;-4.520;2023-02-08T04:30:08;102893.56;;;-2.23;77.71
76632;BME280;65526;48.578;-4.520;2023-02-08T04:32:35;102542.69;;;-3.99;77.84
76632;BME280;65526;48.578;-4.520;2023-02-08T04:35:02;103289.97;;;-0.41;77.98
76632;BME280;65526;48.578;-4.520;2023-02-08T04:37:28;102947.59;;;-2.13;78.21
76632;BME280;65526;48.578;-4.520;2023-02-08T04:39:55;102333.59;;;-5.77;77.81
76632;BME280;65526;48.578;-4.520;2023-02-08T04:42:21;103179.03;;;-0.04;78.42
76632;BME280;65526;48.578;-4.520;2023-02-08T04:44:47;103173.16;;;-0.08;78.20
76632;BME280;65526;48.578;-4.520;2023-02-08T04:47:14;102896.50;;;-2.31;77.61
76632;BME280;65526;48.578;-4.520;2023-02-08T04:49:40;102528.28;;;-4.00;77.56
76632;BME280;65526;48.578;-4.520;2023-02-08T04:52:07;102762.75;;;-2.67;77.86
76632;BME280;65526;48.578;-4.520;2023-02-08T04:54:33;103164.72;;;-0.06;78.04
76632;BME280;65526;48.578;-4.520;2023-02-08T04:56:59;102537.06;;;-3.97;78.03
76632;BME280;65526;48.578;-4.520;2023-02-08T04:59:26;102792.84;;;-2.49;77.90
76632;BME280;65526;48.578;-4.520;2023-02-08T05:01:52;103187.03;;;-0.09;78.26
76632;BME280;65526;48.578;-4.520;2023-02-08T05:04:19;102865.72;;;-2.38;78.45
76632;BME280;65526;48.578;-4.520;2023-02-08T05:06:46;102432.47;;;-4.46;78.16
76632;BME280;65526;48.578;-4.520;2023-02-08T05:09:12;102994.06;;;-1.88;78.04
76632;BME280;65526;48.578;-4.520;2023-02-08T05:11:38;102865.22;;;-1.95;77.75
76632;BME280;65526;48.578;-4.520;2023-02-08T05:14:05;102862.81;;;-2.43;77.92
76632;BME280;65526;48.578;-4.520;2023-02-08T05:16:31;102781.72;;;-2.41;78.27
76632;BME280;65526;48.578;-4.520;2023-02-08T05:18:58;102805.41;;;-2.42;78.39
76632;BME280;65526;48.578;-4.520;2023-02-08T05:21:24;102818.28;;;-2.04;78.88
76632;BME280;65526;48.578;-4.520;2023-02-08T05:23:51;102804.00;;;-2.77;78.75
76632;BME280;65526;48.578;-4.520;2023-02-08T05:26:17;102107.97;;;-6.56;78.00
76632;BME280;65526;48.578;-4.520;2023-02-08T05:28:44;102792.22;;;-2.38;78.98
76632;BME280;65526;48.578;-4.520;2023-02-08T05:31:17;102892.72;;;-2.23;79.00
76632;BME280;65526;48.578;-4.520;2023-02-08T05:33:43;102554.38;;;-4.31;78.44
76632;BME280;65526;48.578;-4.520;2023-02-08T05:36:10;102785.09;;;-2.46;78.25
76632;BME280;65526;48.578;-4.520;2023-02-08T05:38:37;102787.25;;;-2.87;78.02
76632;BME280;65526;48.578;-4.520;2023-02-08T05:41:03;102490.03;;;-4.38;77.83
76632;BME280;65526;48.578;-4.520;2023-02-08T05:43:30;103130.78;;;-0.23;78.31
76632;BME280;65526;48.578;-4.520;2023-02-08T05:45:56;102573.97;;;-4.29;78.17
76632;BME280;65526;48.578;-4.520;2023-02-08T05:48:23;102834.44;;;-2.03;78.32
76632;BME280;65526;48.578;-4.520;2023-02-08T05:50:49;102547.66;;;-4.49;77.85
76632;BME280;65526;48.578;-4.520;2023-02-08T05:53:15;102832.84;;;-2.43;77.89
76632;BME280;65526;48.578;-4.520;2023-02-08T05:55:45;102468.56;;;-4.26;78.45
76632;BME280;65526;48.578;-4.520;2023-02-08T05:58:14;103024.06;;;-1.75;78.58
76632;BME280;65526;48.578;-4.520;2023-02-08T06:00:41;102463.97;;;-4.19;79.33
76632;BME280;65526;48.578;-4.520;2023-02-08T06:03:08;102460.22;;;-4.24;78.61
76632;BME280;65526;48.578;-4.520;2023-02-08T06:05:36;102339.16;;;-4.98;78.27
76632;BME280;65526;48.578;-4.520;2023-02-08T06:08:04;102456.03;;;-4.27;78.04
76632;BME280;65526;48.578;-4.520;2023-02-08T06:10:30;102524.28;;;-4.36;77.91
76632;BME280;65526;48.578;-4.520;2023-02-08T06:12:57;103112.75;;;-0.31;78.29
76632;BME280;65526;48.578;-4.520;2023-02-08T06:15:23;102560.66;;;-4.05;77.79
76632;BME280;65526;48.578;-4.520;2023-02-08T06:17:50;102464.19;;;-4.27;77.65
76632;BME280;65526;48.578;-4.520;2023-02-08T06:20:16;102505.09;;;-4.35;77.61
76632;BME280;65526;48.578;-4.520;2023-02-08T06:22:43;102899.25;;;-1.60;77.97
76632;BME280;65526;48.578;-4.520;2023-02-08T06:25:09;102225.91;;;-6.01;77.37
76632;BME280;65526;48.578;-4.520;2023-02-08T06:27:35;102832.44;;;-2.60;77.91
76632;BME280;65526;48.578;-4.520;2023-02-08T06:30:03;102541.84;;;-4.00;77.65
76632;BME280;65526;48.578;-4.520;2023-02-08T06:32:29;102318.09;;;-5.29;77.47
76632;BME280;65526;48.578;-4.520;2023-02-08T06:34:56;102806.59;;;-2.18;77.66
76632;BME280;65526;48.578;-4.520;2023-02-08T06:37:23;102862.38;;;-2.40;77.78
76632;BME280;65526;48.578;-4.520;2023-02-08T06:39:49;102434.97;;;-4.45;77.56
76632;BME280;65526;48.578;-4.520;2023-02-08T06:42:16;102095.91;;;-6.60;77.21
76632;BME280;65526;48.578;-4.520;2023-02-08T06:44:42;102723.19;;;-2.63;77.96
76632;BME280;65526;48.578;-4.520;2023-02-08T06:47:09;102767.56;;;-2.96;77.95
76632;BME280;65526;48.578;-4.520;2023-02-08T06:49:35;102451.66;;;-4.34;77.58
76632;BME280;65526;48.578;-4.520;2023-02-08T06:52:01;102822.41;;;-2.66;77.52
76632;BME280;65526;48.578;-4.520;2023-02-08T06:54:28;102549.34;;;-4.34;77.45
76632;BME280;65526;48.578;-4.520;2023-02-08T06:56:54;102445.78;;;-4.58;77.38
76632;BME280;65526;48.578;-4.520;2023-02-08T06:59:21;103161.16;;;-0.45;77.71
76632;BME280;65526;48.578;-4.520;2023-02-08T07:01:47;101994.69;;;-7.12;77.12
76632;BME280;65526;48.578;-4.520;2023-02-08T07:04:13;103211.94;;;-0.30;77.96
76632;BME280;65526;48.578;-4.520;2023-02-08T07:06:40;102800.22;;;-2.76;77.81
76632;BME280;65526;48.578;-4.520;2023-02-08T07:09:06;102434.53;;;-4.42;77.55
76632;BME280;65526;48.578;-4.520;2023-02-08T07:11:33;102869.72;;;-2.60;77.90
76632;BME280;65526;48.578;-4.520;2023-02-08T07:13:59;103151.84;;;-0.30;78.74
76632;BME280;65526;48.578;-4.520;2023-02-08T07:16:26;102851.31;;;-2.78;78.10
76632;BME280;65526;48.578;-4.520;2023-02-08T07:18:52;102558.97;;;-4.12;77.63
76632;BME280;65526;48.578;-4.520;2023-02-08T07:21:18;103164.47;;;-0.36;78.39
76632;BME280;65526;48.578;-4.520;2023-02-08T07:23:46;103106.69;;;-0.77;78.60
76632;BME280;65526;48.578;-4.520;2023-02-08T07:26:13;102067.16;;;-6.74;78.05
76632;BME280;65526;48.578;-4.520;2023-02-08T07:28:40;102774.06;;;-3.23;77.83
76632;BME280;65526;48.578;-4.520;2023-02-08T07:31:10;102493.94;;;-4.93;77.60
76632;BME280;65526;48.578;-4.520;2023-02-08T07:33:36;102267.81;;;-5.57;77.70
76632;BME280;65526;48.578;-4.520;2023-02-08T07:36:04;102444.75;;;-4.50;77.63
76632;BME280;65526;48.578;-4.520;2023-02-08T07:38:31;102574.44;;;-4.00;77.41
76632;BME280;65526;48.578;-4.520;2023-02-08T07:41:00;102792.69;;;-3.00;77.65
76632;BME280;65526;48.578;-4.520;2023-02-08T07:43:27;102488.59;;;-4.20;77.67
76632;BME280;65526;48.578;-4.520;2023-02-08T07:45:58;102683.50;;;-3.43;77.70
76632;BME280;65526;48.578;-4.520;2023-02-08T07:48:29;103113.88;;;-0.45;78.03
76632;BME280;65526;48.578;-4.520;2023-02-08T07:50:56;102428.47;;;-4.57;78.00
76632;BME280;65526;48.578;-4.520;2023-02-08T07:53:22;102938.56;;;-2.01;78.03
76632;BME280;65526;48.578;-4.520;2023-02-08T07:55:48;102751.69;;;-2.99;78.02
76632;BME280;65526;48.578;-4.520;2023-02-08T07:58:15;102476.06;;;-4.41;78.28
76632;BME280;65526;48.578;-4.520;2023-02-08T08:00:41;103118.47;;;-0.39;78.77
76632;BME280;65526;48.578;-4.520;2023-02-08T08:03:07;102512.38;;;-4.42;78.06
76632;BME280;65526;48.578;-4.520;2023-02-08T08:05:34;103161.97;;;-0.37;79.11
76632;BME280;65526;48.578;-4.520;2023-02-08T08:08:00;102836.22;;;-2.67;78.71
76632;BME280;65526;48.578;-4.520;2023-02-08T08:10:27;102758.19;;;-3.06;78.65
76632;BME280;65526;48.578;-4.520;2023-02-08T08:12:53;102479.63;;;-4.47;78.53
76632;BME280;65526;48.578;-4.520;2023-02-08T08:15:19;102311.03;;;-6.04;78.48
76632;BME280;65526;48.578;-4.520;2023-02-08T08:17:46;103176.84;;;-0.33;78.84
76632;BME280;65526;48.578;-4.520;2023-02-08T08:20:12;102540.56;;;-4.30;78.39
76632;BME280;65526;48.578;-4.520;2023-02-08T08:22:38;102478.59;;;-4.26;78.63
76632;BME280;65526;48.578;-4.520;2023-02-08T08:25:05;102445.38;;;-4.68;78.41
76632;BME280;65526;48.578;-4.520;2023-02-08T08:27:31;102306.31;;;-5.88;78.55
76632;BME280;65526;48.578;-4.520;2023-02-08T08:29:57;102575.47;;;-3.87;78.97
76632;BME280;65526;48.578;-4.520;2023-02-08T08:32:25;103169.00;;;-0.17;79.36
76632;BME280;65526;48.578;-4.520;2023-02-08T08:34:51;102450.16;;;-4.57;78.91
76632;BME280;65526;48.578;-4.520;2023-02-08T08:37:18;102322.56;;;-5.88;78.41
76632;BME280;65526;48.578;-4.520;2023-02-08T08:39:44;102495.25;;;-4.03;78.94
76632;BME280;65526;48.578;-4.520;2023-02-08T08:42:10;102845.78;;;-2.25;78.92
76632;BME280;65526;48.578;-4.520;2023-02-08T08:44:37;102941.09;;;-2.12;78.33
76632;BME280;65526;48.578;-4.520;2023-02-08T08:47:03;102108.22;;;-6.38;77.71
76632;BME280;65526;48.578;-4.520;2023-02-08T08:49:29;103224.59;;;0.02;79.27
76632;BME280;65526;48.578;-4.520;2023-02-08T08:51:56;102720.97;;;-2.35;79.97
76632;BME280;65526;48.578;-4.520;2023-02-08T08:54:23;102810.50;;;-1.94;79.63
76632;BME280;65526;48.578;-4.520;2023-02-08T08:56:49;102633.72;;;-3.04;78.77
76632;BME280;65526;48.578;-4.520;2023-02-08T08:59:16;103161.31;;;0.05;78.64
76632;BME280;65526;48.578;-4.520;2023-02-08T09:01:42;102499.81;;;-3.57;77.98
76632;BME280;65526;48.578;-4.520;2023-02-08T09:04:09;103225.00;;;0.44;78.08
76632;BME280;65526;48.578;-4.520;2023-02-08T09:06:36;103107.53;;;-0.01;77.87
76632;BME280;65526;48.578;-4.520;2023-02-08T09:09:04;102868.22;;;-1.59;77.58
76632;BME280;65526;48.578;-4.520;2023-02-08T09:11:30;102869.63;;;-1.12;77.17
76632;BME280;65526;48.578;-4.520;2023-02-08T09:14:00;102415.53;;;-4.61;76.68
76632;BME280;65526;48.578;-4.520;2023-02-08T09:16:27;102754.63;;;-1.72;76.99
76632;BME280;65526;48.578;-4.520;2023-02-08T09:18:53;103244.69;;;0.84;76.78
76632;BME280;65526;48.578;-4.520;2023-02-08T09:21:22;102938.00;;;-1.07;76.74
76632;BME280;65526;48.578;-4.520;2023-02-08T09:23:50;102693.19;;;-2.06;79.08
76632;BME280;65526;48.578;-4.520;2023-02-08T09:26:18;102152.16;;;-5.11;77.01
76632;BME280;65526;48.578;-4.520;2023-02-08T09:28:45;102423.22;;;-3.41;77.88
76632;BME280;65526;48.578;-4.520;2023-02-08T09:31:17;102775.41;;;-1.14;77.43
76632;BME280;65526;48.578;-4.520;2023-02-08T09:33:44;102534.28;;;-2.56;77.49
76632;BME280;65526;48.578;-4.520;2023-02-08T09:36:10;103308.03;;;1.37;77.36
76632;BME280;65526;48.578;-4.520;2023-02-08T09:38:38;102974.16;;;-0.17;76.77
76632;BME280;65526;48.578;-4.520;2023-02-08T09:41:43;102349.16;;;-3.68;76.46
76632;BME280;65526;48.578;-4.520;2023-02-08T09:44:22;102578.91;;;-2.57;76.52
76632;BME280;65526;48.578;-4.520;2023-02-08T09:46:56;102748.06;;;-0.83;76.95
76632;BME280;65526;48.578;-4.520;2023-02-08T09:49:29;102215.19;;;-4.00;77.29
76632;BME280;65526;48.578;-4.520;2023-02-08T09:52:01;102887.19;;;0.16;77.17
76632;BME280;65526;48.578;-4.520;2023-02-08T09:54:34;102470.69;;;-2.30;77.19
76632;BME280;65526;48.578;-4.520;2023-02-08T09:57:05;102934.56;;;-0.33;77.01
76632;BME280;65526;48.578;-4.520;2023-02-08T09:59:36;102763.19;;;-0.62;76.64
76632;BME280;65526;48.578;-4.520;2023-02-08T10:02:34;102553.59;;;-1.51;76.87
76632;BME280;65526;48.578;-4.520;2023-02-08T10:05:13;102559.97;;;-1.39;77.55
76632;BME280;65526;48.578;-4.520;2023-02-08T10:07:41;102298.72;;;-2.95;75.66
76632;BME280;65526;48.578;-4.520;2023-02-08T10:10:26;103270.38;;;2.05;76.41
76632;BME280;65526;48.578;-4.520;2023-02-08T10:19:03;102983.16;;;1.59;76.45
76632;BME280;65526;48.578;-4.520;2023-02-08T10:27:19;102853.81;;;1.04;77.22
76632;BME280;65526;48.578;-4.520;2023-02-08T10:30:19;102297.19;;;-2.23;75.47
76632;BME280;65526;48.578;-4.520;2023-02-08T10:33:09;102644.03;;;-0.09;75.54
76632;BME280;65526;48.578;-4.520;2023-02-08T10:35:40;102769.19;;;0.61;75.16
76632;BME280;65526;48.578;-4.520;2023-02-08T10:38:22;103188.53;;;3.08;75.13
76632;BME280;65526;48.578;-4.520;2023-02-08T10:41:00;102853.88;;;1.39;74.86
76632;BME280;65526;48.578;-4.520;2023-02-08T10:49:00;103159.19;;;3.77;75.00
76632;BME280;65526;48.578;-4.520;2023-02-08T10:51:28;103230.94;;;3.87;74.91
76632;BME280;65526;48.578;-4.520;2023-02-08T10:53:56;103149.41;;;3.98;74.79
76632;BME280;65526;48.578;-4.520;2023-02-08T10:58:57;102937.25;;;2.59;75.30
76632;BME280;65526;48.578;-4.520;2023-02-08T11:01:25;102360.84;;;-0.80;73.91
76632;BME280;65526;48.578;-4.520;2023-02-08T11:04:05;102834.47;;;2.38;74.60
76632;BME280;65526;48.578;-4.520;2023-02-08T11:06:32;102949.53;;;2.97;73.79
76632;BME280;65526;48.578;-4.520;2023-02-08T11:08:58;102547.69;;;1.01;74.02
76632;BME280;65526;48.578;-4.520;2023-02-08T11:11:25;102704.13;;;1.68;73.83
76632;BME280;65526;48.578;-4.520;2023-02-08T11:14:07;102669.97;;;1.87;73.87
76632;BME280;65526;48.578;-4.520;2023-02-08T11:16:34;102407.34;;;0.25;73.65
76632;BME280;65526;48.578;-4.520;2023-02-08T11:19:03;103227.94;;;5.29;73.92
76632;BME280;65526;48.578;-4.520;2023-02-08T11:21:36;103160.25;;;5.38;74.12
76632;BME280;65526;48.578;-4.520;2023-02-08T11:24:26;103162.63;;;5.51;73.95
76632;BME280;65526;48.578;-4.520;2023-02-08T11:26:53;102930.34;;;3.58;73.42
76632;BME280;65526;48.578;-4.520;2023-02-08T11:29:23;102633.75;;;2.63;73.55
76632;BME280;65526;48.578;-4.520;2023-02-08T11:34:32;102595.31;;;2.63;73.46
76632;BME280;65526;48.578;-4.520;2023-02-08T11:37:11;102783.81;;;3.96;73.27
76632;BME280;65526;48.578;-4.520;2023-02-08T11:39:41;103133.66;;;6.24;73.28
76632;BME280;65526;48.578;-4.520;2023-02-08T11:42:24;102576.63;;;2.99;72.91
76632;BME280;65526;48.578;-4.520;2023-02-08T11:44:53;102290.69;;;1.38;72.46
76632;BME280;65526;48.578;-4.520;2023-02-08T11:47:25;103122.59;;;6.56;72.78
76632;BME280;65526;48.578;-4.520;2023-02-08T11:50:01;102467.59;;;2.77;72.27
76632;BME280;65526;48.578;-4.520;2023-02-08T11:52:34;102591.13;;;3.59;72.10
76632;BME280;65526;48.578;-4.520;2023-02-08T12:00:26;102227.59;;;1.71;71.41
76632;BME280;65526;48.578;-4.520;2023-02-08T12:02:58;102369.91;;;2.55;70.94
76632;BME280;65526;48.578;-4.520;2023-02-08T12:05:41;103108.00;;;7.08;71.30
76632;BME280;65526;48.578;-4.520;2023-02-08T12:08:38;103102.09;;;7.41;70.72
76632;BME280;65526;48.578;-4.520;2023-02-08T12:22:38;102571.88;;;4.87;70.27
76632;BME280;65526;48.578;-4.520;2023-02-08T12:41:43;102778.69;;;6.74;67.49
76632;BME280;65526;48.578;-4.520;2023-02-08T12:50:00;103071.75;;;8.83;67.18
76632;BME280;65526;48.578;-4.520;2023-02-08T12:52:40;102820.75;;;7.11;67.72
76632;BME280;65526;48.578;-4.520;2023-02-08T12:55:24;102533.31;;;5.70;67.31
76632;BME280;65526;48.578;-4.520;2023-02-08T12:57:53;102752.72;;;6.95;67.40
76632;BME280;65526;48.578;-4.520;2023-02-08T13:00:25;102769.03;;;6.92;66.88
76632;BME280;65526;48.578;-4.520;2023-02-08T13:05:51;103064.53;;;8.97;68.32
76632;BME280;65526;48.578;-4.520;2023-02-08T13:10:54;102529.47;;;5.86;66.36
76632;BME280;65526;48.578;-4.520;2023-02-08T13:13:27;102559.63;;;6.13;68.35
76632;BME280;65526;48.578;-4.520;2023-02-08T13:18:30;102561.28;;;5.99;67.22
76632;BME280;65526;48.578;-4.520;2023-02-08T13:21:13;102619.53;;;6.48;66.71
76632;BME280;65526;48.578;-4.520;2023-02-08T13:23:42;102567.91;;;6.33;66.36
76632;BME280;65526;48.578;-4.520;2023-02-08T13:26:11;103032.78;;;9.29;66.96
76632;BME280;65526;48.578;-4.520;2023-02-08T13:28:38;102502.72;;;6.27;67.50
76632;BME280;65526;48.578;-4.520;2023-02-08T13:31:11;102319.56;;;5.06;66.79
76632;BME280;65526;48.578;-4.520;2023-02-08T13:36:58;103021.47;;;9.10;65.48
76632;BME280;65526;48.578;-4.520;2023-02-08T13:39:31;103011.09;;;9.36;66.52
76632;BME280;65526;48.578;-4.520;2023-02-08T13:41:59;102504.94;;;6.35;66.46
76632;BME280;65526;48.578;-4.520;2023-02-08T13:44:37;103055.41;;;9.51;67.78
76632;BME280;65526;48.578;-4.520;2023-02-08T13:47:06;103018.72;;;9.59;68.08
76632;BME280;65526;48.578;-4.520;2023-02-08T13:49:55;102981.47;;;9.65;68.36
76632;BME280;65526;48.578;-4.520;2023-02-08T13:58:26;102580.94;;;7.37;67.39
76632;BME280;65526;48.578;-4.520;2023-02-08T16:56:51;102041.44;;;2.60;69.49
76632;BME280;65526;48.578;-4.520;2023-02-08T16:59:25;101934.91;;;2.05;69.82
76632;BME280;65526;48.578;-4.520;2023-02-08T17:01:53;102053.66;;;2.79;70.05
76632;BME280;65526;48.578;-4.520;2023-02-08T17:04:22;102112.59;;;2.67;70.22
76632;BME280;65526;48.578;-4.520;2023-02-08T17:06:54;102412.59;;;4.74;70.69
76632;BME280;65526;48.578;-4.520;2023-02-08T17:09:23;102063.16;;;2.30;70.63
76632;BME280;65526;48.578;-4.520;2023-02-08T17:11:50;102665.31;;;6.08;70.67
76632;BME280;65526;48.578;-4.520;2023-02-08T17:14:18;102141.22;;;2.76;70.69
76632;BME280;65526;48.578;-4.520;2023-02-08T17:43:38;102052.03;;;1.56;72.09
76632;BME280;65526;48.578;-4.520;2023-02-08T17:46:15;102081.56;;;1.76;71.85
76632;BME280;65526;48.578;-4.520;2023-02-08T17:48:42;102051.28;;;1.61;72.39
76632;BME280;65526;48.578;-4.520;2023-02-08T17:51:20;102011.41;;;1.21;72.38
76632;BME280;65526;48.578;-4.520;2023-02-08T17:53:47;102424.72;;;3.20;72.66
76632;BME280;65526;48.578;-4.520;2023-02-08T17:56:19;102027.75;;;1.38;72.60
76632;BME280;65526;48.578;-4.520;2023-02-08T17:58:47;102381.25;;;3.17;72.87
76632;BME280;65526;48.578;-4.520;2023-02-08T18:01:16;102705.44;;;5.22;73.24
76632;BME280;65526;48.578;-4.520;2023-02-08T18:03:47;102680.13;;;5.25;72.57
76632;BME280;65526;48.578;-4.520;2023-02-08T18:06:14;102712.09;;;4.89;73.25
76632;BME280;65526;48.578;-4.520;2023-02-08T18:08:41;102144.75;;;1.42;73.01
76632;BME280;65526;48.578;-4.520;2023-02-08T18:11:13;102722.00;;;4.85;73.31
76632;BME280;65526;48.578;-4.520;2023-02-08T18:13:49;102066.47;;;1.03;73.26
76632;BME280;65526;48.578;-4.520;2023-02-08T18:16:21;102974.22;;;6.52;73.62